createdAt,value
2018-10-03T00:00:47.581Z,11.30
2018-10-03T00:03:18.726Z,11.30
2018-10-03T00:05:50.105Z,11.30
2018-10-03T00:08:21.464Z,11.30
2018-10-03T00:10:53.044Z,11.30
2018-10-03T00:13:24.429Z,11.40
2018-10-03T00:15:55.857Z,11.30
2018-10-03T00:18:27.021Z,11.30
2018-10-03T00:20:58.697Z,11.30
2018-10-03T00:23:29.987Z,11.30
2018-10-03T00:26:01.280Z,11.40
2018-10-03T00:28:32.825Z,11.40
2018-10-03T00:31:04.113Z,11.40
2018-10-03T00:33:35.512Z,11.40
2018-10-03T00:36:06.876Z,11.40
2018-10-03T00:38:38.184Z,11.40
2018-10-03T00:41:09.929Z,11.40
2018-10-03T00:43:41.415Z,11.40
2018-10-03T00:46:12.785Z,11.40
2018-10-03T00:48:43.857Z,11.40
2018-10-03T00:51:15.384Z,11.40
2018-10-03T00:53:46.822Z,11.40
2018-10-03T00:56:18.477Z,11.40
2018-10-03T00:58:49.593Z,11.30
2018-10-03T01:01:21.064Z,11.30
2018-10-03T01:03:52.577Z,11.40
2018-10-03T01:06:24.291Z,11.40
2018-10-03T01:08:55.586Z,11.40
2018-10-03T01:11:26.741Z,11.40
2018-10-03T01:13:58.143Z,11.30
2018-10-03T01:16:29.521Z,11.30
2018-10-03T01:19:00.793Z,11.30
2018-10-03T01:21:32.053Z,11.40
2018-10-03T01:24:03.281Z,11.40
2018-10-03T01:26:34.629Z,11.40
2018-10-03T01:29:06.153Z,11.40
2018-10-03T01:31:37.495Z,11.40
2018-10-03T01:34:09.020Z,11.30
2018-10-03T01:36:40.627Z,11.20
2018-10-03T01:39:12.391Z,11.20
2018-10-03T01:41:43.738Z,11.30
2018-10-03T01:44:15.084Z,11.40
2018-10-03T01:46:46.274Z,11.50
2018-10-03T01:49:17.579Z,11.50
2018-10-03T01:51:49.032Z,11.60
2018-10-03T01:54:20.275Z,11.70
2018-10-03T01:56:51.446Z,11.80
2018-10-03T01:59:22.818Z,11.70
2018-10-03T02:01:53.981Z,11.70
2018-10-03T02:04:25.554Z,11.80
2018-10-03T02:06:56.918Z,11.80
2018-10-03T02:09:28.288Z,11.90
2018-10-03T02:11:59.733Z,11.90
2018-10-03T02:14:31.484Z,11.90
2018-10-03T02:17:02.678Z,11.90
2018-10-03T02:19:34.048Z,11.90
2018-10-03T02:22:05.218Z,12.00
2018-10-03T02:24:36.726Z,12.00
2018-10-03T02:27:08.224Z,12.00
2018-10-03T02:29:39.377Z,12.00
2018-10-03T02:32:10.621Z,12.00
2018-10-03T02:34:41.964Z,12.00
2018-10-03T02:37:13.361Z,12.00
2018-10-03T02:39:44.562Z,12.10
2018-10-03T02:42:15.822Z,12.10
2018-10-03T02:44:47.143Z,12.10
2018-10-03T02:47:18.516Z,12.10
2018-10-03T02:49:49.912Z,12.10
2018-10-03T02:52:21.073Z,12.10
2018-10-03T02:54:52.736Z,12.10
2018-10-03T02:57:23.906Z,12.10
2018-10-03T02:59:55.472Z,12.10
2018-10-03T03:02:26.689Z,12.10
2018-10-03T03:04:57.853Z,12.20
2018-10-03T03:07:29.343Z,12.10
2018-10-03T03:10:00.744Z,12.20
2018-10-03T03:12:32.002Z,12.10
2018-10-03T03:15:03.360Z,12.10
2018-10-03T03:17:34.633Z,12.10
2018-10-03T03:20:05.978Z,12.10
2018-10-03T03:22:37.537Z,12.10
2018-10-03T03:25:08.735Z,12.10
2018-10-03T03:27:39.817Z,12.10
2018-10-03T03:30:11.432Z,12.10
2018-10-03T03:32:42.777Z,12.10
2018-10-03T03:35:14.949Z,12.10
2018-10-03T03:37:46.192Z,12.10
2018-10-03T03:40:17.484Z,12.10
2018-10-03T03:42:48.932Z,12.10
2018-10-03T03:45:21.020Z,12.10
2018-10-03T03:47:52.356Z,12.10
2018-10-03T03:50:23.736Z,12.10
2018-10-03T03:52:55.160Z,12.10
2018-10-03T03:55:26.438Z,12.20
2018-10-03T03:57:57.706Z,12.10
2018-10-03T04:00:28.920Z,12.10
2018-10-03T04:03:00.134Z,12.10
2018-10-03T04:05:31.545Z,12.10
2018-10-03T04:08:02.916Z,12.20
2018-10-03T04:10:34.095Z,12.20
2018-10-03T04:13:05.251Z,12.10
2018-10-03T04:15:36.445Z,12.10
2018-10-03T04:18:07.809Z,12.10
2018-10-03T04:20:39.191Z,12.10
2018-10-03T04:23:10.353Z,12.20
2018-10-03T04:25:41.685Z,12.10
2018-10-03T04:28:13.249Z,12.10
2018-10-03T04:30:44.603Z,12.20
2018-10-03T04:33:15.913Z,12.20
2018-10-03T04:35:47.456Z,12.20
2018-10-03T04:38:18.640Z,12.20
2018-10-03T04:40:50.011Z,12.20
2018-10-03T04:43:21.525Z,12.20
2018-10-03T04:45:52.772Z,12.20
2018-10-03T04:48:24.234Z,12.20
2018-10-03T04:50:55.568Z,12.20
2018-10-03T04:53:27.131Z,12.30
2018-10-03T04:55:58.190Z,12.30
2018-10-03T04:58:29.399Z,12.30
2018-10-03T05:01:00.778Z,12.30
2018-10-03T05:03:32.006Z,12.30
2018-10-03T05:06:03.335Z,12.30
2018-10-03T05:08:34.796Z,12.30
2018-10-03T05:11:06.323Z,12.30
2018-10-03T05:13:37.834Z,12.30
2018-10-03T05:16:09.187Z,12.40
2018-10-03T05:18:40.719Z,12.40
2018-10-03T05:21:12.770Z,12.40
2018-10-03T05:23:44.117Z,12.30
2018-10-03T05:26:15.469Z,12.30
2018-10-03T05:28:46.854Z,12.30
2018-10-03T05:31:17.962Z,12.20
2018-10-03T05:33:49.696Z,12.30
2018-10-03T05:36:21.267Z,12.30
2018-10-03T05:38:52.629Z,12.40
2018-10-03T05:41:24.152Z,12.40
2018-10-03T05:43:55.733Z,12.40
2018-10-03T05:46:28.043Z,12.40
2018-10-03T05:48:59.082Z,12.30
2018-10-03T05:51:30.591Z,12.30
2018-10-03T05:54:01.756Z,12.40
2018-10-03T05:56:33.234Z,12.50
2018-10-03T05:59:04.237Z,12.50
2018-10-03T06:01:35.488Z,12.50
2018-10-03T06:04:07.019Z,12.50
2018-10-03T06:06:38.192Z,12.50
2018-10-03T06:09:12.277Z,12.40
2018-10-03T06:11:44.043Z,12.40
2018-10-03T06:14:15.201Z,12.40
2018-10-03T06:16:46.790Z,12.40
2018-10-03T06:19:18.060Z,12.50
2018-10-03T06:21:49.673Z,12.50
2018-10-03T06:24:21.112Z,12.50
2018-10-03T06:26:52.388Z,12.50
2018-10-03T06:29:24.200Z,12.50
2018-10-03T06:31:55.268Z,12.50
2018-10-03T06:34:26.677Z,12.50
2018-10-03T06:36:57.999Z,12.50
2018-10-03T06:39:29.781Z,12.50
2018-10-03T06:42:01.050Z,12.50
2018-10-03T06:44:32.893Z,12.60
2018-10-03T06:47:04.268Z,12.60
2018-10-03T06:49:35.983Z,12.60
2018-10-03T06:52:07.457Z,12.60
2018-10-03T06:54:39.264Z,12.60
2018-10-03T06:57:10.633Z,12.60
2018-10-03T06:59:41.777Z,12.70
2018-10-03T07:02:13.160Z,12.80
2018-10-03T07:04:44.448Z,12.80
2018-10-03T07:07:15.841Z,12.80
2018-10-03T07:09:47.528Z,12.80
2018-10-03T07:12:18.657Z,12.80
2018-10-03T07:14:49.866Z,12.90
2018-10-03T07:17:21.195Z,12.90
2018-10-03T07:19:52.904Z,13.00
2018-10-03T07:22:24.243Z,13.20
2018-10-03T07:24:55.734Z,13.30
2018-10-03T07:27:27.069Z,13.40
2018-10-03T07:29:58.473Z,13.50
2018-10-03T07:32:29.908Z,13.50
2018-10-03T07:35:01.000Z,13.60
2018-10-03T07:37:32.256Z,13.70
2018-10-03T07:40:03.673Z,13.70
2018-10-03T07:42:35.028Z,13.80
2018-10-03T07:45:06.264Z,13.80
2018-10-03T07:47:37.723Z,13.80
2018-10-03T07:50:09.672Z,13.90
2018-10-03T07:52:41.151Z,13.90
2018-10-03T07:55:12.502Z,13.90
2018-10-03T07:57:44.424Z,13.90
2018-10-03T08:00:16.244Z,13.90
2018-10-03T08:02:47.581Z,13.80
2018-10-03T08:05:18.788Z,13.80
2018-10-03T08:07:50.115Z,13.90
2018-10-03T08:10:21.598Z,13.90
2018-10-03T08:12:52.696Z,14.00
2018-10-03T08:15:23.892Z,14.10
2018-10-03T08:17:55.153Z,14.30
2018-10-03T08:20:26.603Z,14.50
2018-10-03T08:22:58.058Z,14.70
2018-10-03T08:25:29.316Z,14.80
2018-10-03T08:28:00.640Z,14.80
2018-10-03T08:30:32.105Z,14.80
2018-10-03T08:33:03.261Z,14.60
2018-10-03T08:35:34.565Z,14.60
2018-10-03T08:38:05.789Z,14.60
2018-10-03T08:40:37.182Z,14.60
2018-10-03T08:43:09.241Z,14.60
2018-10-03T08:45:40.844Z,14.70
2018-10-03T08:48:12.133Z,14.70
2018-10-03T08:50:43.628Z,14.80
2018-10-03T08:53:15.021Z,14.80
2018-10-03T08:55:46.596Z,15.10
2018-10-03T08:58:18.056Z,15.10
2018-10-03T09:00:49.472Z,15.20
2018-10-03T09:03:20.743Z,15.30
2018-10-03T09:05:51.896Z,15.40
2018-10-03T09:08:23.121Z,15.70
2018-10-03T09:10:54.445Z,15.90
2018-10-03T09:13:26.129Z,16.10
2018-10-03T09:15:57.401Z,16.30
2018-10-03T09:18:28.813Z,16.20
2018-10-03T09:21:00.191Z,16.20
2018-10-03T09:23:31.509Z,16.20
2018-10-03T09:26:02.962Z,16.70
2018-10-03T09:28:34.330Z,17.30
2018-10-03T09:31:05.721Z,17.70
2018-10-03T09:33:37.205Z,18.50
2018-10-03T09:36:08.698Z,18.80
2018-10-03T09:38:40.034Z,19.20
2018-10-03T09:41:11.605Z,19.30
2018-10-03T09:43:43.003Z,19.40
2018-10-03T09:46:14.100Z,19.30
2018-10-03T09:48:45.513Z,18.80
2018-10-03T09:51:17.184Z,18.50
2018-10-03T09:53:48.185Z,18.50
2018-10-03T09:56:19.588Z,19.10
2018-10-03T09:58:51.012Z,19.20
2018-10-03T10:01:27.223Z,19.30
2018-10-03T10:03:59.420Z,19.90
2018-10-03T10:06:31.672Z,20.00
2018-10-03T10:09:04.597Z,20.10
2018-10-03T10:11:35.982Z,20.20
2018-10-03T10:14:06.952Z,20.20
2018-10-03T10:16:38.354Z,20.60
2018-10-03T10:19:09.653Z,21.10
2018-10-03T10:21:41.240Z,21.20
2018-10-03T10:24:12.679Z,21.00
2018-10-03T10:26:44.154Z,20.50
2018-10-03T10:29:15.996Z,20.60
2018-10-03T10:31:47.477Z,21.30
2018-10-03T10:34:18.745Z,21.30
2018-10-03T10:36:50.282Z,21.50
2018-10-03T10:39:21.689Z,20.80
2018-10-03T10:41:53.157Z,20.00
2018-10-03T10:44:24.498Z,19.60
2018-10-03T10:46:55.973Z,19.10
2018-10-03T10:49:27.290Z,18.80
2018-10-03T10:51:58.648Z,18.70
2018-10-03T10:54:29.980Z,19.10
2018-10-03T10:57:01.367Z,19.60
2018-10-03T10:59:33.118Z,19.40
2018-10-03T11:02:04.433Z,19.30
2018-10-03T11:04:35.705Z,19.30
2018-10-03T11:07:07.226Z,19.50
2018-10-03T11:09:38.628Z,19.60
2018-10-03T11:12:10.044Z,19.40
2018-10-03T11:14:41.629Z,19.50
2018-10-03T11:17:13.142Z,19.40
2018-10-03T11:19:44.358Z,19.20
2018-10-03T11:22:15.658Z,19.00
2018-10-03T11:24:47.306Z,18.80
2018-10-03T11:27:18.759Z,18.70
2018-10-03T11:29:50.096Z,18.50
2018-10-03T11:32:21.371Z,18.40
2018-10-03T11:34:52.681Z,18.30
2018-10-03T11:37:24.092Z,18.10
2018-10-03T11:39:55.865Z,18.00
2018-10-03T11:42:27.096Z,17.80
2018-10-03T11:44:58.759Z,17.70
2018-10-03T11:47:30.009Z,17.70
2018-10-03T11:50:01.305Z,17.60
2018-10-03T11:52:32.912Z,17.30
2018-10-03T11:55:04.289Z,17.20
2018-10-03T11:57:35.664Z,17.10
2018-10-03T12:00:07.292Z,16.90
2018-10-03T12:02:38.518Z,16.80
2018-10-03T12:05:09.829Z,16.80
2018-10-03T12:07:41.479Z,16.60
2018-10-03T12:10:13.169Z,16.50
2018-10-03T12:12:44.844Z,16.40
2018-10-03T12:15:15.959Z,16.40
2018-10-03T12:17:47.280Z,16.40
2018-10-03T12:20:18.522Z,16.60
2018-10-03T12:22:49.675Z,16.60
2018-10-03T12:25:21.378Z,16.60
2018-10-03T12:27:53.088Z,16.60
2018-10-03T12:30:24.501Z,16.80
2018-10-03T12:32:55.954Z,16.90
2018-10-03T12:35:33.345Z,16.80
2018-10-03T12:38:04.776Z,16.90
2018-10-03T12:40:36.132Z,17.10
2018-10-03T12:43:07.552Z,17.10
2018-10-03T12:45:38.941Z,17.20
2018-10-03T12:48:10.425Z,17.20
2018-10-03T12:50:41.833Z,17.10
2018-10-03T12:53:13.336Z,16.90
2018-10-03T12:55:44.858Z,16.80
2018-10-03T12:58:16.109Z,16.90
2018-10-03T13:00:47.340Z,16.90
2018-10-03T13:03:18.711Z,16.90
2018-10-03T13:05:50.172Z,17.00
2018-10-03T13:08:21.524Z,17.00
2018-10-03T13:10:52.850Z,16.80
2018-10-03T13:13:24.421Z,16.70
2018-10-03T13:15:55.838Z,16.70
2018-10-03T13:18:27.177Z,16.60
2018-10-03T13:20:58.728Z,16.60
2018-10-03T13:23:30.018Z,16.60
2018-10-03T13:26:01.447Z,16.60
2018-10-03T13:28:32.689Z,16.50
2018-10-03T13:31:04.009Z,16.60
2018-10-03T13:33:35.557Z,16.60
2018-10-03T13:36:07.128Z,16.80
2018-10-03T13:38:38.478Z,16.90
2018-10-03T13:41:09.858Z,16.90
2018-10-03T13:43:41.320Z,16.90
2018-10-03T13:46:12.555Z,17.00
2018-10-03T13:48:44.017Z,17.00
2018-10-03T13:51:15.115Z,16.90
2018-10-03T13:53:46.324Z,16.90
2018-10-03T13:56:17.913Z,16.80
2018-10-03T13:58:49.308Z,16.80
2018-10-03T14:01:20.841Z,16.70
2018-10-03T14:03:52.378Z,16.70
2018-10-03T14:06:23.787Z,16.60
2018-10-03T14:08:55.445Z,16.50
2018-10-03T14:11:27.067Z,16.40
2018-10-03T14:13:58.641Z,16.30
2018-10-03T14:16:30.368Z,16.30
2018-10-03T14:19:01.844Z,16.40
2018-10-03T14:21:33.200Z,16.40
2018-10-03T14:24:04.493Z,16.50
2018-10-03T14:26:36.105Z,16.30
2018-10-03T14:29:07.297Z,16.30
2018-10-03T14:31:38.852Z,16.40
2018-10-03T14:34:10.555Z,16.40
2018-10-03T14:36:42.010Z,16.40
2018-10-03T14:39:13.599Z,16.50
2018-10-03T14:41:44.792Z,16.40
2018-10-03T14:44:16.303Z,16.50
2018-10-03T14:46:47.900Z,16.40
2018-10-03T14:49:19.401Z,16.40
2018-10-03T14:51:50.892Z,16.40
2018-10-03T14:54:22.481Z,16.30
2018-10-03T14:56:53.978Z,16.30
2018-10-03T14:59:25.806Z,16.30
2018-10-03T15:01:57.312Z,16.40
2018-10-03T15:04:28.678Z,16.30
2018-10-03T15:07:00.242Z,16.20
2018-10-03T15:09:31.790Z,16.20
2018-10-03T15:12:03.411Z,16.20
2018-10-03T15:14:34.690Z,16.20
2018-10-03T15:17:06.285Z,16.20
2018-10-03T15:19:37.876Z,16.10
2018-10-03T15:22:09.412Z,16.20
2018-10-03T15:24:40.942Z,16.20
2018-10-03T15:27:12.415Z,16.20
2018-10-03T15:29:43.849Z,16.20
2018-10-03T15:32:15.121Z,16.20
2018-10-03T15:34:46.705Z,16.30
2018-10-03T15:37:21.819Z,16.30
2018-10-03T15:39:52.978Z,16.30
2018-10-03T15:42:24.593Z,16.30
2018-10-03T15:44:55.869Z,16.30
2018-10-03T15:47:27.585Z,16.30
2018-10-03T15:49:59.394Z,16.30
2018-10-03T15:52:30.685Z,16.30
2018-10-03T15:55:02.580Z,16.20
2018-10-03T15:57:34.126Z,16.20
2018-10-03T16:00:05.851Z,16.10
2018-10-03T16:02:37.175Z,16.00
2018-10-03T16:05:08.919Z,16.00
2018-10-03T16:07:41.304Z,15.90
2018-10-03T16:10:12.741Z,15.90
2018-10-03T16:12:44.325Z,15.90
2018-10-03T16:15:15.762Z,15.80
2018-10-03T16:17:47.178Z,15.80
2018-10-03T16:20:18.603Z,15.70
2018-10-03T16:22:49.930Z,15.60
2018-10-03T16:25:21.657Z,15.60
2018-10-03T16:27:53.488Z,15.60
2018-10-03T16:30:25.024Z,15.60
2018-10-03T16:32:56.746Z,15.60
2018-10-03T16:35:29.046Z,15.50
2018-10-03T16:38:00.711Z,15.50
2018-10-03T16:40:32.131Z,15.40
2018-10-03T16:43:03.900Z,15.40
2018-10-03T16:45:35.329Z,15.40
2018-10-03T16:48:07.215Z,15.40
2018-10-03T16:50:38.608Z,15.40
2018-10-03T16:53:10.149Z,15.30
2018-10-03T16:55:41.820Z,15.30
2018-10-03T16:58:13.378Z,15.10
2018-10-03T17:00:44.804Z,15.00
2018-10-03T17:03:16.404Z,15.00
2018-10-03T17:05:48.146Z,15.00
2018-10-03T17:08:20.006Z,14.90
2018-10-03T17:10:51.442Z,14.80
2018-10-03T17:13:23.692Z,14.80
2018-10-03T17:15:55.199Z,14.80
2018-10-03T17:18:26.518Z,14.80
2018-10-03T17:20:57.957Z,14.70
2018-10-03T17:23:29.664Z,14.60
2018-10-03T17:26:01.014Z,14.60
2018-10-03T17:28:32.476Z,14.50
2018-10-03T17:31:04.050Z,14.60
2018-10-03T17:33:35.794Z,14.60
2018-10-03T17:36:07.192Z,14.50
2018-10-03T17:38:40.156Z,14.50
2018-10-03T17:41:11.707Z,14.50
2018-10-03T17:43:43.008Z,14.50
2018-10-03T17:46:14.525Z,14.60
2018-10-03T17:48:46.292Z,14.60
2018-10-03T17:51:17.849Z,14.60
2018-10-03T17:53:49.675Z,14.60
2018-10-03T17:56:21.177Z,14.60
2018-10-03T17:58:52.826Z,14.60
2018-10-03T18:01:25.552Z,14.60
2018-10-03T18:03:56.991Z,14.60
2018-10-03T18:06:28.735Z,14.60
2018-10-03T18:09:00.629Z,14.50
2018-10-03T18:11:32.283Z,14.60
2018-10-03T18:14:03.648Z,14.60
2018-10-03T18:16:35.102Z,14.50
2018-10-03T18:19:07.097Z,14.50
2018-10-03T18:21:38.477Z,14.60
2018-10-03T18:24:10.035Z,14.60
2018-10-03T18:26:41.479Z,14.50
2018-10-03T18:29:12.903Z,14.50
2018-10-03T18:31:44.210Z,14.50
2018-10-03T18:34:16.054Z,14.40
2018-10-03T18:36:47.709Z,14.40
2018-10-03T18:39:19.603Z,14.50
2018-10-03T18:41:51.387Z,14.40
2018-10-03T18:44:23.245Z,14.50
2018-10-03T18:46:55.490Z,14.50
2018-10-03T18:49:27.587Z,14.40
2018-10-03T18:52:00.368Z,14.40
2018-10-03T18:54:32.694Z,14.40
2018-10-03T18:57:04.916Z,14.40
2018-10-03T18:59:36.651Z,14.40
2018-10-03T19:02:08.500Z,14.40
2018-10-03T19:04:40.197Z,14.30
2018-10-03T19:07:13.731Z,14.30
2018-10-03T19:09:45.481Z,14.20
2018-10-03T19:12:17.658Z,14.20
2018-10-03T19:14:49.710Z,14.20
2018-10-03T19:17:21.395Z,14.20
2018-10-03T19:19:53.121Z,14.30
2018-10-03T19:22:25.027Z,14.20
2018-10-03T19:24:56.896Z,14.10
2018-10-03T19:27:28.858Z,14.10
2018-10-03T19:30:00.766Z,14.00
2018-10-03T19:32:32.665Z,14.00
2018-10-03T19:35:04.658Z,14.00
2018-10-03T19:37:36.947Z,14.10
2018-10-03T19:40:08.567Z,14.00
2018-10-03T19:42:40.218Z,14.00
2018-10-03T19:45:11.779Z,13.90
2018-10-03T19:47:43.925Z,13.90
2018-10-03T19:50:15.391Z,13.80
2018-10-03T19:52:46.932Z,13.80
2018-10-03T19:55:18.323Z,13.80
2018-10-03T19:57:49.835Z,13.70
2018-10-03T20:00:21.416Z,13.70
2018-10-03T20:02:53.320Z,13.70
2018-10-03T20:05:24.949Z,13.70
2018-10-03T20:07:56.624Z,13.70
2018-10-03T20:10:28.185Z,13.60
2018-10-03T20:12:59.770Z,13.60
2018-10-03T20:15:31.203Z,13.50
2018-10-03T20:18:02.865Z,13.50
2018-10-03T20:20:34.433Z,13.50
2018-10-03T20:23:05.977Z,13.60
2018-10-03T20:25:37.626Z,13.60
2018-10-03T20:28:09.214Z,13.50
2018-10-03T20:30:40.743Z,13.40
2018-10-03T20:33:11.855Z,13.50
2018-10-03T20:35:43.197Z,13.40
2018-10-03T20:38:14.834Z,13.40
2018-10-03T20:40:46.430Z,13.40
2018-10-03T20:43:18.176Z,13.30
2018-10-03T20:45:49.697Z,13.40
2018-10-03T20:48:21.580Z,13.30
2018-10-03T20:50:53.105Z,13.30
2018-10-03T20:53:24.588Z,13.30
2018-10-03T20:55:56.116Z,13.30
2018-10-03T20:58:27.558Z,13.20
2018-10-03T21:00:59.068Z,13.10
2018-10-03T21:03:30.853Z,13.10
2018-10-03T21:06:02.123Z,13.00
2018-10-03T21:08:33.988Z,12.80
2018-10-03T21:11:05.883Z,12.60
2018-10-03T21:13:37.427Z,12.50
2018-10-03T21:16:09.169Z,12.50
2018-10-03T21:18:41.014Z,12.40
2018-10-03T21:21:12.458Z,12.30
2018-10-03T21:23:44.329Z,12.30
2018-10-03T21:26:16.097Z,12.20
2018-10-03T21:28:47.622Z,12.10
2018-10-03T21:31:19.036Z,12.10
2018-10-03T21:33:50.368Z,12.10
2018-10-03T21:36:21.972Z,12.10
2018-10-03T21:38:53.380Z,12.20
2018-10-03T21:41:24.641Z,12.20
2018-10-03T21:43:56.047Z,12.20
2018-10-03T21:46:27.484Z,12.20
2018-10-03T21:48:58.810Z,12.20
2018-10-03T21:51:30.535Z,12.20
2018-10-03T21:54:02.025Z,12.20
2018-10-03T21:56:33.176Z,12.30
2018-10-03T21:59:04.552Z,12.20
2018-10-03T22:01:36.057Z,12.20
2018-10-03T22:04:07.398Z,12.20
2018-10-03T22:06:38.801Z,12.20
2018-10-03T22:09:10.285Z,12.20
2018-10-03T22:11:41.815Z,12.10
2018-10-03T22:14:13.317Z,12.10
2018-10-03T22:16:45.579Z,12.20
2018-10-03T22:19:17.032Z,12.20
2018-10-03T22:21:49.245Z,12.20
2018-10-03T22:24:20.887Z,12.20
2018-10-03T22:26:52.299Z,12.20
2018-10-03T22:29:23.860Z,12.10
2018-10-03T22:31:55.129Z,12.10
2018-10-03T22:34:26.650Z,12.10
2018-10-03T22:36:57.792Z,12.10
2018-10-03T22:39:29.118Z,12.00
2018-10-03T22:42:00.507Z,12.00
2018-10-03T22:44:31.960Z,12.00
2018-10-03T22:47:03.101Z,12.10
2018-10-03T22:49:34.457Z,12.10
2018-10-03T22:52:05.988Z,12.10
2018-10-03T22:54:37.456Z,12.10
2018-10-03T22:57:09.003Z,12.10
2018-10-03T22:59:41.229Z,12.00
2018-10-03T23:02:13.084Z,12.10
2018-10-03T23:04:44.320Z,12.10
2018-10-03T23:07:15.717Z,12.10
2018-10-03T23:09:47.178Z,12.10
2018-10-03T23:12:18.440Z,12.10
2018-10-03T23:14:49.853Z,12.00
2018-10-03T23:17:21.341Z,12.00
2018-10-03T23:19:52.877Z,12.00
2018-10-03T23:22:24.025Z,11.90
2018-10-03T23:24:55.462Z,11.90
2018-10-03T23:27:26.752Z,11.80
2018-10-03T23:29:57.971Z,11.80
2018-10-03T23:32:29.325Z,11.90
2018-10-03T23:35:00.656Z,12.00
2018-10-03T23:37:32.153Z,12.00
2018-10-03T23:40:03.540Z,12.00
2018-10-03T23:42:34.956Z,11.90
2018-10-03T23:45:06.316Z,12.00
2018-10-03T23:47:37.568Z,11.90
2018-10-03T23:50:09.196Z,11.80
2018-10-03T23:52:40.696Z,11.70
2018-10-03T23:55:12.376Z,11.70
2018-10-03T23:57:43.809Z,11.70
